createdAt,value
2023-05-15T00:00:02.696Z,12.00
2023-05-15T00:01:02.745Z,12.00
2023-05-15T00:02:02.825Z,12.00
2023-05-15T00:03:04.595Z,11.90
2023-05-15T00:04:04.531Z,11.90
2023-05-15T00:05:02.917Z,11.90
2023-05-15T00:06:04.577Z,11.90
2023-05-15T00:07:02.706Z,11.90
2023-05-15T00:08:02.781Z,11.90
2023-05-15T00:09:02.768Z,11.90
2023-05-15T00:10:04.580Z,11.80
2023-05-15T00:11:02.793Z,11.80
2023-05-15T00:12:02.786Z,11.80
2023-05-15T00:13:02.769Z,11.80
2023-05-15T00:14:04.737Z,11.70
2023-05-15T00:15:04.780Z,11.70
2023-05-15T00:17:02.861Z,11.70
2023-05-15T00:18:04.767Z,11.70
2023-05-15T00:19:02.934Z,11.60
2023-05-15T00:20:02.930Z,11.60
2023-05-15T00:21:02.809Z,11.60
2023-05-15T00:22:02.734Z,11.60
2023-05-15T00:23:04.735Z,11.60
2023-05-15T00:25:02.696Z,11.60
2023-05-15T00:26:02.804Z,11.50
2023-05-15T00:27:02.898Z,11.50
2023-05-15T00:28:02.748Z,11.50
2023-05-15T00:29:04.762Z,11.50
2023-05-15T00:30:02.814Z,11.50
2023-05-15T00:31:04.806Z,11.50
2023-05-15T00:33:04.764Z,11.50
2023-05-15T00:34:04.507Z,11.40
2023-05-15T00:35:02.598Z,11.40
2023-05-15T00:36:02.818Z,11.40
2023-05-15T00:37:04.769Z,11.40
2023-05-15T00:38:02.875Z,11.40
2023-05-15T00:39:02.720Z,11.40
2023-05-15T00:40:02.785Z,11.40
2023-05-15T00:41:04.760Z,11.30
2023-05-15T00:42:04.776Z,11.30
2023-05-15T00:43:02.877Z,11.30
2023-05-15T00:44:04.810Z,11.30
2023-05-15T00:45:04.619Z,11.30
2023-05-15T00:46:02.888Z,11.20
2023-05-15T00:47:02.881Z,11.20
2023-05-15T00:48:02.961Z,11.20
2023-05-15T00:49:02.907Z,11.20
2023-05-15T00:50:02.821Z,11.20
2023-05-15T00:51:02.805Z,11.20
2023-05-15T00:52:02.803Z,11.20
2023-05-15T00:53:02.902Z,11.20
2023-05-15T00:54:02.995Z,11.20
2023-05-15T00:55:02.900Z,11.10
2023-05-15T00:56:04.794Z,11.10
2023-05-15T00:57:04.781Z,11.10
2023-05-15T00:58:04.803Z,11.10
2023-05-15T00:59:02.820Z,11.10
2023-05-15T01:00:04.799Z,11.10
2023-05-15T01:01:02.769Z,11.10
2023-05-15T01:02:04.791Z,11.10
2023-05-15T01:03:02.725Z,11.10
2023-05-15T01:04:04.568Z,11.10
2023-05-15T01:05:02.850Z,11.10
2023-05-15T01:06:02.650Z,11.10
2023-05-15T01:07:04.811Z,11.10
2023-05-15T01:08:02.853Z,11.00
2023-05-15T01:09:02.840Z,11.00
2023-05-15T01:10:02.890Z,11.00
2023-05-15T01:11:04.633Z,11.00
2023-05-15T01:12:02.716Z,11.00
2023-05-15T01:13:02.661Z,11.00
2023-05-15T01:14:03.035Z,11.00
2023-05-15T01:15:02.851Z,11.00
2023-05-15T01:16:04.655Z,11.00
2023-05-15T01:17:04.612Z,11.00
2023-05-15T01:18:02.892Z,11.00
2023-05-15T01:19:03.089Z,10.90
2023-05-15T01:20:04.705Z,10.90
2023-05-15T01:21:04.547Z,10.90
2023-05-15T01:22:02.880Z,10.90
2023-05-15T01:23:02.878Z,10.90
2023-05-15T01:24:02.856Z,10.90
2023-05-15T01:25:02.910Z,10.90
2023-05-15T01:26:02.883Z,10.90
2023-05-15T01:27:04.837Z,10.90
2023-05-15T01:28:02.852Z,10.90
2023-05-15T01:29:02.905Z,10.90
2023-05-15T01:30:04.820Z,10.90
2023-05-15T01:31:02.802Z,10.90
2023-05-15T01:32:03.039Z,10.80
2023-05-15T01:33:02.963Z,10.80
2023-05-15T01:34:03.033Z,10.90
2023-05-15T01:35:02.804Z,10.90
2023-05-15T01:36:02.894Z,10.90
2023-05-15T01:37:02.832Z,10.80
2023-05-15T01:38:02.931Z,10.80
2023-05-15T01:39:02.816Z,10.80
2023-05-15T01:40:04.856Z,10.80
2023-05-15T01:41:02.993Z,10.80
2023-05-15T01:42:02.867Z,10.80
2023-05-15T01:43:02.850Z,10.80
2023-05-15T01:44:02.868Z,10.80
2023-05-15T01:45:02.895Z,10.80
2023-05-15T01:46:02.809Z,10.80
2023-05-15T01:47:03.008Z,10.80
2023-05-15T01:48:02.865Z,10.80
2023-05-15T01:49:02.842Z,10.80
2023-05-15T01:50:02.913Z,10.80
2023-05-15T01:51:02.789Z,10.80
2023-05-15T01:52:02.851Z,10.80
2023-05-15T01:53:02.802Z,10.80
2023-05-15T01:54:02.828Z,10.80
2023-05-15T01:55:02.831Z,10.80
2023-05-15T01:56:02.848Z,10.80
2023-05-15T01:57:04.805Z,10.70
2023-05-15T01:58:04.825Z,10.70
2023-05-15T01:59:02.930Z,10.70
2023-05-15T02:00:02.820Z,10.70
2023-05-15T02:01:04.848Z,10.70
2023-05-15T02:02:04.904Z,10.60
2023-05-15T02:03:04.737Z,10.60
2023-05-15T02:04:04.719Z,10.60
2023-05-15T02:05:04.688Z,10.60
2023-05-15T02:06:02.776Z,10.60
2023-05-15T02:07:04.845Z,10.60
2023-05-15T02:08:02.944Z,10.60
2023-05-15T02:09:04.617Z,10.60
2023-05-15T02:10:02.972Z,10.60
2023-05-15T02:11:02.890Z,10.60
2023-05-15T02:12:04.849Z,10.60
2023-05-15T02:13:04.865Z,10.60
2023-05-15T02:14:02.871Z,10.50
2023-05-15T02:15:02.931Z,10.50
2023-05-15T02:16:04.873Z,10.50
2023-05-15T02:17:04.610Z,10.50
2023-05-15T02:18:02.991Z,10.50
2023-05-15T02:19:04.877Z,10.50
2023-05-15T02:20:04.871Z,10.50
2023-05-15T02:21:02.850Z,10.50
2023-05-15T02:22:02.895Z,10.50
2023-05-15T02:23:02.900Z,10.50
2023-05-15T02:24:02.871Z,10.40
2023-05-15T02:25:02.851Z,10.40
2023-05-15T02:26:03.041Z,10.40
2023-05-15T02:27:02.907Z,10.40
2023-05-15T02:28:03.019Z,10.40
2023-05-15T02:29:02.965Z,10.40
2023-05-15T02:30:02.917Z,10.40
2023-05-15T02:31:02.950Z,10.40
2023-05-15T02:32:02.909Z,10.40
2023-05-15T02:33:03.025Z,10.40
2023-05-15T02:34:02.720Z,10.40
2023-05-15T02:35:02.898Z,10.40
2023-05-15T02:36:02.839Z,10.40
2023-05-15T02:37:02.908Z,10.40
2023-05-15T02:38:04.893Z,10.40
2023-05-15T02:39:03.035Z,10.40
2023-05-15T02:40:02.644Z,10.40
2023-05-15T02:41:02.665Z,10.40
2023-05-15T02:42:02.711Z,10.40
2023-05-15T02:43:02.663Z,10.40
2023-05-15T02:44:02.828Z,10.40
2023-05-15T02:45:04.761Z,10.40
2023-05-15T02:46:02.910Z,10.40
2023-05-15T02:47:04.676Z,10.40
2023-05-15T02:48:02.942Z,10.40
2023-05-15T02:49:04.894Z,10.40
2023-05-15T02:50:02.929Z,10.40
2023-05-15T02:51:02.928Z,10.40
2023-05-15T02:52:02.936Z,10.40
2023-05-15T02:53:02.955Z,10.40
2023-05-15T02:54:02.936Z,10.40
2023-05-15T02:55:03.016Z,10.40
2023-05-15T02:56:04.923Z,10.40
2023-05-15T02:57:03.101Z,10.40
2023-05-15T02:58:02.905Z,10.40
2023-05-15T02:59:03.088Z,10.50
2023-05-15T03:00:03.001Z,10.50
2023-05-15T03:01:02.959Z,10.50
2023-05-15T03:02:03.110Z,10.50
2023-05-15T03:03:02.958Z,10.50
2023-05-15T03:04:02.959Z,10.50
2023-05-15T03:05:03.054Z,10.50
2023-05-15T03:06:04.661Z,10.50
2023-05-15T03:07:02.993Z,10.50
2023-05-15T03:08:03.006Z,10.50
2023-05-15T03:09:04.882Z,10.50
2023-05-15T03:10:02.949Z,10.50
2023-05-15T03:11:02.895Z,10.50
2023-05-15T03:12:02.911Z,10.50
2023-05-15T03:13:03.061Z,10.50
2023-05-15T03:14:03.021Z,10.50
2023-05-15T03:15:02.900Z,10.50
2023-05-15T03:16:02.967Z,10.50
2023-05-15T03:17:02.966Z,10.50
2023-05-15T03:18:03.179Z,10.50
2023-05-15T03:19:04.924Z,10.50
2023-05-15T03:20:02.592Z,10.50
2023-05-15T03:21:02.737Z,10.50
2023-05-15T03:22:04.787Z,10.50
2023-05-15T03:23:02.935Z,10.40
2023-05-15T03:24:03.044Z,10.40
2023-05-15T03:25:02.930Z,10.40
2023-05-15T03:26:03.070Z,10.40
2023-05-15T03:27:02.616Z,10.40
2023-05-15T03:28:02.623Z,10.40
2023-05-15T03:29:02.688Z,10.40
2023-05-15T03:30:02.673Z,10.40
2023-05-15T03:31:02.784Z,10.40
2023-05-15T03:32:02.895Z,10.40
2023-05-15T03:33:02.886Z,10.40
2023-05-15T03:34:04.951Z,10.40
2023-05-15T03:35:02.944Z,10.40
2023-05-15T03:36:02.975Z,10.40
2023-05-15T03:37:03.000Z,10.40
2023-05-15T03:38:02.986Z,10.30
2023-05-15T03:39:03.135Z,10.30
2023-05-15T03:40:02.955Z,10.30
2023-05-15T03:41:03.024Z,10.30
2023-05-15T03:42:03.147Z,10.30
2023-05-15T03:43:03.035Z,10.30
2023-05-15T03:44:03.131Z,10.30
2023-05-15T03:45:02.745Z,10.30
2023-05-15T03:46:02.966Z,10.30
2023-05-15T03:47:02.853Z,10.30
2023-05-15T03:48:02.929Z,10.30
2023-05-15T03:49:03.142Z,10.30
2023-05-15T03:50:02.936Z,10.30
2023-05-15T03:51:03.136Z,10.30
2023-05-15T03:52:04.933Z,10.30
2023-05-15T03:53:03.119Z,10.30
2023-05-15T03:54:03.026Z,10.20
2023-05-15T03:55:02.681Z,10.30
2023-05-15T03:56:02.673Z,10.20
2023-05-15T03:57:04.936Z,10.30
2023-05-15T03:58:03.049Z,10.20
2023-05-15T03:59:03.036Z,10.30
2023-05-15T04:00:02.927Z,10.30
2023-05-15T04:01:02.952Z,10.30
2023-05-15T04:02:05.244Z,10.30
2023-05-15T04:03:03.024Z,10.30
2023-05-15T04:04:03.008Z,10.30
2023-05-15T04:05:03.081Z,10.30
2023-05-15T04:06:04.725Z,10.30
2023-05-15T04:07:03.045Z,10.30
2023-05-15T04:08:03.113Z,10.30
2023-05-15T04:09:03.012Z,10.30
2023-05-15T04:10:03.080Z,10.30
2023-05-15T04:11:03.085Z,10.30
2023-05-15T04:12:03.046Z,10.30
2023-05-15T04:13:02.803Z,10.30
2023-05-15T04:14:05.015Z,10.30
2023-05-15T04:15:02.791Z,10.30
2023-05-15T04:16:04.841Z,10.30
2023-05-15T04:17:04.717Z,10.30
2023-05-15T04:18:03.070Z,10.30
2023-05-15T04:19:03.108Z,10.30
2023-05-15T04:20:02.752Z,10.30
2023-05-15T04:21:02.761Z,10.30
2023-05-15T04:22:02.739Z,10.30
2023-05-15T04:23:02.863Z,10.30
2023-05-15T04:24:02.805Z,10.30
2023-05-15T04:25:04.748Z,10.30
2023-05-15T04:26:04.816Z,10.30
2023-05-15T04:27:03.042Z,10.30
2023-05-15T04:28:02.784Z,10.30
2023-05-15T04:29:04.277Z,10.30
2023-05-15T04:30:03.121Z,10.30
2023-05-15T04:31:03.024Z,10.30
2023-05-15T04:32:03.087Z,10.30
2023-05-15T04:33:03.124Z,10.30
2023-05-15T04:34:03.173Z,10.30
2023-05-15T04:35:02.823Z,10.30
2023-05-15T04:36:03.227Z,10.30
2023-05-15T04:37:03.071Z,10.30
2023-05-15T04:38:03.110Z,10.30
2023-05-15T04:39:05.003Z,10.30
2023-05-15T04:40:03.179Z,10.40
2023-05-15T04:41:04.794Z,10.40
2023-05-15T04:42:02.979Z,10.40
2023-05-15T04:43:02.978Z,10.40
2023-05-15T04:44:02.696Z,10.40
2023-05-15T04:45:02.647Z,10.40
2023-05-15T04:46:03.127Z,10.40
2023-05-15T04:47:03.171Z,10.40
2023-05-15T04:48:02.816Z,10.50
2023-05-15T04:49:02.867Z,10.50
2023-05-15T04:50:02.845Z,10.50
2023-05-15T04:51:02.725Z,10.50
2023-05-15T04:52:02.740Z,10.50
2023-05-15T04:53:02.678Z,10.60
2023-05-15T04:54:02.694Z,10.60
2023-05-15T04:55:02.828Z,10.60
2023-05-15T04:56:02.873Z,10.60
2023-05-15T04:57:04.817Z,10.60
2023-05-15T04:58:03.022Z,10.60
2023-05-15T04:59:05.000Z,10.60
2023-05-15T05:00:03.009Z,10.70
2023-05-15T05:01:03.991Z,10.70
2023-05-15T05:02:03.250Z,10.70
2023-05-15T05:03:02.732Z,10.70
2023-05-15T05:04:03.047Z,10.70
2023-05-15T05:05:03.224Z,10.70
2023-05-15T05:06:03.052Z,10.80
2023-05-15T05:07:03.249Z,10.80
2023-05-15T05:08:04.824Z,10.80
2023-05-15T05:09:03.062Z,10.80
2023-05-15T05:10:05.032Z,10.90
2023-05-15T05:11:03.148Z,10.90
2023-05-15T05:12:03.062Z,10.90
2023-05-15T05:13:02.688Z,10.90
2023-05-15T05:14:02.666Z,10.90
2023-05-15T05:15:02.718Z,10.90
2023-05-15T05:16:02.798Z,10.90
2023-05-15T05:17:02.796Z,11.00
2023-05-15T05:18:02.971Z,11.00
2023-05-15T05:19:03.186Z,11.00
2023-05-15T05:20:04.888Z,11.00
2023-05-15T05:21:03.027Z,11.00
2023-05-15T05:22:05.047Z,11.00
2023-05-15T05:23:04.882Z,11.10
2023-05-15T05:24:03.082Z,11.10
2023-05-15T05:25:02.644Z,11.10
2023-05-15T05:26:06.100Z,11.20
2023-05-15T05:27:04.877Z,11.20
2023-05-15T05:28:04.829Z,11.20
2023-05-15T05:29:03.103Z,11.30
2023-05-15T05:30:03.102Z,11.30
2023-05-15T05:31:02.848Z,11.30
2023-05-15T05:32:02.970Z,11.40
2023-05-15T05:33:05.121Z,11.40
2023-05-15T05:34:04.818Z,11.40
2023-05-15T05:35:03.184Z,11.50
2023-05-15T05:36:04.796Z,11.50
2023-05-15T05:37:03.208Z,11.50
2023-05-15T05:38:02.822Z,11.60
2023-05-15T05:39:02.856Z,11.60
2023-05-15T05:40:02.911Z,11.70
2023-05-15T05:41:02.871Z,11.70
2023-05-15T05:42:02.973Z,11.80
2023-05-15T05:43:04.909Z,11.80
2023-05-15T05:44:03.131Z,11.90
2023-05-15T05:45:04.835Z,12.00
2023-05-15T05:46:03.107Z,12.10
2023-05-15T05:47:03.214Z,12.20
2023-05-15T05:48:04.860Z,12.30
2023-05-15T05:49:03.186Z,12.40
2023-05-15T05:50:03.211Z,12.50
2023-05-15T05:51:03.156Z,12.60
2023-05-15T05:52:03.182Z,12.70
2023-05-15T05:53:03.235Z,12.80
2023-05-15T05:54:05.052Z,12.80
2023-05-15T05:55:03.170Z,13.00
2023-05-15T05:56:06.022Z,13.10
2023-05-15T05:57:02.635Z,13.20
2023-05-15T05:58:03.430Z,13.40
2023-05-15T05:59:03.277Z,13.60
2023-05-15T06:00:03.083Z,13.80
2023-05-15T06:01:02.654Z,13.90
2023-05-15T06:02:12.225Z,14.10
2023-05-15T06:03:03.252Z,14.30
2023-05-15T06:04:04.910Z,14.50
2023-05-15T06:05:04.916Z,14.60
2023-05-15T06:06:03.261Z,14.80
2023-05-15T06:07:02.925Z,15.00
2023-05-15T06:08:03.040Z,15.10
2023-05-15T06:09:19.299Z,15.20
2023-05-15T06:10:03.122Z,15.40
2023-05-15T06:11:02.902Z,15.50
2023-05-15T06:12:04.936Z,15.70
2023-05-15T06:13:03.248Z,15.90
2023-05-15T06:14:05.330Z,16.00
2023-05-15T06:15:03.139Z,16.10
2023-05-15T06:16:03.300Z,16.30
2023-05-15T06:17:05.497Z,16.40
2023-05-15T06:18:12.449Z,16.50
2023-05-15T06:19:05.213Z,16.60
2023-05-15T06:20:04.833Z,16.70
2023-05-15T06:21:02.952Z,16.90
2023-05-15T06:22:20.090Z,16.90
2023-05-15T06:23:02.961Z,17.00
2023-05-15T06:24:04.917Z,17.10
2023-05-15T06:25:04.906Z,17.20
2023-05-15T06:26:03.227Z,17.30
2023-05-15T06:27:03.167Z,17.40
2023-05-15T06:28:02.843Z,17.50
2023-05-15T06:29:02.999Z,17.60
2023-05-15T06:30:03.086Z,17.70
2023-05-15T06:31:03.303Z,17.80
2023-05-15T06:32:02.849Z,17.90
2023-05-15T06:33:02.978Z,17.90
2023-05-15T06:34:04.945Z,18.00
2023-05-15T06:35:03.361Z,18.00
2023-05-15T06:36:04.882Z,18.10
2023-05-15T06:37:03.243Z,18.20
2023-05-15T06:38:03.299Z,18.30
2023-05-15T06:39:03.142Z,18.30
2023-05-15T06:40:02.761Z,18.40
2023-05-15T06:41:02.749Z,18.50
2023-05-15T06:42:02.768Z,18.60
2023-05-15T06:43:04.871Z,18.60
2023-05-15T06:44:03.293Z,18.70
2023-05-15T06:45:03.164Z,18.80
2023-05-15T06:46:03.292Z,18.80
2023-05-15T06:47:04.932Z,18.90
2023-05-15T06:48:03.150Z,18.90
2023-05-15T06:49:03.068Z,19.00
2023-05-15T06:50:05.302Z,19.10
2023-05-15T06:51:04.899Z,19.10
2023-05-15T06:52:03.271Z,19.10
2023-05-15T06:53:03.201Z,19.10
2023-05-15T06:54:03.178Z,19.20
2023-05-15T06:55:03.176Z,19.20
2023-05-15T06:56:03.315Z,19.20
2023-05-15T06:57:03.263Z,19.20
2023-05-15T06:58:03.329Z,19.20
2023-05-15T06:59:02.800Z,19.20
2023-05-15T07:00:02.844Z,19.20
2023-05-15T07:01:02.827Z,19.20
2023-05-15T07:02:03.063Z,19.20
2023-05-15T07:03:04.951Z,19.20
2023-05-15T07:04:05.307Z,19.20
2023-05-15T07:05:02.793Z,19.20
2023-05-15T07:06:03.228Z,19.30
2023-05-15T07:07:03.270Z,19.30
2023-05-15T07:08:03.272Z,19.30
2023-05-15T07:09:02.932Z,19.40
2023-05-15T07:10:05.141Z,19.40
2023-05-15T07:11:03.266Z,19.40
2023-05-15T07:12:05.001Z,19.50
2023-05-15T07:13:03.288Z,19.50
2023-05-15T07:14:02.731Z,19.60
2023-05-15T07:15:02.823Z,19.60
2023-05-15T07:16:02.957Z,19.60
2023-05-15T07:17:05.216Z,19.70
2023-05-15T07:18:03.449Z,19.70
2023-05-15T07:19:02.953Z,19.70
2023-05-15T07:20:03.154Z,19.70
2023-05-15T07:21:04.887Z,19.70
2023-05-15T07:22:03.552Z,19.70
2023-05-15T07:23:03.057Z,19.60
2023-05-15T07:24:03.083Z,19.60
2023-05-15T07:25:03.364Z,19.50
2023-05-15T07:26:03.336Z,19.50
2023-05-15T07:27:03.226Z,19.50
2023-05-15T07:28:03.282Z,19.50
2023-05-15T07:29:02.790Z,19.60
2023-05-15T07:30:03.199Z,19.60
2023-05-15T07:31:03.383Z,19.60
2023-05-15T07:32:03.435Z,19.70
2023-05-15T07:33:02.685Z,19.70
2023-05-15T07:34:02.763Z,19.70
2023-05-15T07:35:02.826Z,19.80
2023-05-15T07:36:02.751Z,19.80
2023-05-15T07:37:02.789Z,19.90
2023-05-15T07:38:02.776Z,19.90
2023-05-15T07:39:03.420Z,19.90
2023-05-15T07:40:03.194Z,20.00
2023-05-15T07:41:03.231Z,20.00
2023-05-15T07:42:03.316Z,20.00
2023-05-15T07:43:03.303Z,20.10
2023-05-15T07:44:03.129Z,20.10
2023-05-15T07:45:03.302Z,20.10
2023-05-15T07:46:04.930Z,20.10
2023-05-15T07:47:04.909Z,20.20
2023-05-15T07:48:03.115Z,20.20
2023-05-15T07:49:04.937Z,20.30
2023-05-15T07:50:03.271Z,20.30
2023-05-15T07:51:03.205Z,20.30
2023-05-15T07:52:03.288Z,20.40
2023-05-15T07:53:03.159Z,20.40
2023-05-15T07:54:03.139Z,20.50
2023-05-15T07:55:03.213Z,20.50
2023-05-15T07:56:03.345Z,20.50
2023-05-15T07:57:03.203Z,20.50
2023-05-15T07:58:03.256Z,20.50
2023-05-15T07:59:03.352Z,20.60
2023-05-15T08:00:02.821Z,20.60
2023-05-15T08:01:02.869Z,20.60
2023-05-15T08:02:03.038Z,20.60
2023-05-15T08:03:02.869Z,20.60
2023-05-15T08:04:03.208Z,20.60
2023-05-15T08:05:05.009Z,20.60
2023-05-15T08:06:03.215Z,20.60
2023-05-15T08:07:02.751Z,20.60
2023-05-15T08:08:03.201Z,20.60
2023-05-15T08:09:03.199Z,20.60
2023-05-15T08:10:03.336Z,20.60
2023-05-15T08:11:03.249Z,20.60
2023-05-15T08:12:03.307Z,20.70
2023-05-15T08:13:03.303Z,20.70
2023-05-15T08:14:03.328Z,20.70
2023-05-15T08:15:05.003Z,20.70
2023-05-15T08:16:03.386Z,20.80
2023-05-15T08:17:02.988Z,20.80
2023-05-15T08:18:03.023Z,20.80
2023-05-15T08:19:03.324Z,20.80
2023-05-15T08:20:03.338Z,20.80
2023-05-15T08:21:04.644Z,20.90
2023-05-15T08:22:02.807Z,20.90
2023-05-15T08:23:02.826Z,20.90
2023-05-15T08:24:02.664Z,20.90
2023-05-15T08:25:02.670Z,20.90
2023-05-15T08:26:02.692Z,20.90
2023-05-15T08:27:02.722Z,20.80
2023-05-15T08:28:02.767Z,20.80
2023-05-15T08:29:02.892Z,20.80
2023-05-15T08:30:02.850Z,20.80
2023-05-15T08:31:02.925Z,20.80
2023-05-15T08:32:03.044Z,20.90
2023-05-15T08:33:03.067Z,20.90
2023-05-15T08:34:03.191Z,20.90
2023-05-15T08:35:03.381Z,20.90
2023-05-15T08:36:03.314Z,21.00
2023-05-15T08:37:04.955Z,21.00
2023-05-15T08:38:03.056Z,21.00
2023-05-15T08:39:03.260Z,21.10
2023-05-15T08:40:02.623Z,21.10
2023-05-15T08:41:02.795Z,21.10
2023-05-15T08:42:02.931Z,21.10
2023-05-15T08:43:03.027Z,21.20
2023-05-15T08:44:02.918Z,21.20
2023-05-15T08:45:02.825Z,21.20
2023-05-15T08:46:02.878Z,21.20
2023-05-15T08:47:03.005Z,21.30
2023-05-15T08:48:02.793Z,21.30
2023-05-15T08:49:02.843Z,21.40
2023-05-15T08:50:02.889Z,21.40
2023-05-15T08:51:02.908Z,21.50
2023-05-15T08:52:02.931Z,21.50
2023-05-15T08:53:03.423Z,21.50
2023-05-15T08:54:03.235Z,21.40
2023-05-15T08:55:03.407Z,21.40
2023-05-15T08:56:03.247Z,21.40
2023-05-15T08:57:03.319Z,21.50
2023-05-15T08:58:03.370Z,21.50
2023-05-15T08:59:03.331Z,21.50
2023-05-15T09:00:03.238Z,21.50
2023-05-15T09:01:02.831Z,21.40
2023-05-15T09:02:02.781Z,21.40
2023-05-15T09:03:03.308Z,21.30
2023-05-15T09:04:03.464Z,21.20
2023-05-15T09:05:05.113Z,21.10
2023-05-15T09:06:03.372Z,21.00
2023-05-15T09:07:03.384Z,20.90
2023-05-15T09:08:03.319Z,20.80
2023-05-15T09:09:03.375Z,20.80
2023-05-15T09:10:03.338Z,20.80
2023-05-15T09:11:02.880Z,20.70
2023-05-15T09:12:02.956Z,20.80
2023-05-15T09:13:03.008Z,20.80
2023-05-15T09:14:02.890Z,20.80
2023-05-15T09:15:02.990Z,20.80
2023-05-15T09:16:02.910Z,20.80
2023-05-15T09:17:02.772Z,20.70
2023-05-15T09:18:02.691Z,20.60
2023-05-15T09:19:02.945Z,20.50
2023-05-15T09:20:02.900Z,20.40
2023-05-15T09:21:02.889Z,20.30
2023-05-15T09:22:02.892Z,20.30
2023-05-15T09:23:02.856Z,20.20
2023-05-15T09:24:02.661Z,20.10
2023-05-15T09:25:02.847Z,20.10
2023-05-15T09:26:02.782Z,20.00
2023-05-15T09:27:03.384Z,20.00
2023-05-15T09:28:03.384Z,19.90
2023-05-15T09:29:02.888Z,19.80
2023-05-15T09:30:02.970Z,19.80
2023-05-15T09:31:03.056Z,19.70
2023-05-15T09:32:03.352Z,19.70
2023-05-15T09:33:05.182Z,19.60
2023-05-15T09:34:03.028Z,19.50
2023-05-15T09:35:02.933Z,19.50
2023-05-15T09:36:02.970Z,19.50
2023-05-15T09:37:03.140Z,19.40
2023-05-15T09:38:03.115Z,19.40
2023-05-15T09:39:03.177Z,19.40
2023-05-15T09:40:03.278Z,19.40
2023-05-15T09:41:03.308Z,19.40
2023-05-15T09:42:03.497Z,19.40
2023-05-15T09:43:03.478Z,19.40
2023-05-15T09:44:03.405Z,19.40
2023-05-15T09:45:03.432Z,19.40
2023-05-15T09:46:03.180Z,19.50
2023-05-15T09:47:03.362Z,19.50
2023-05-15T09:48:02.975Z,19.50
2023-05-15T09:49:03.236Z,19.50
2023-05-15T09:50:03.289Z,19.50
2023-05-15T09:51:03.487Z,19.60
2023-05-15T09:52:05.147Z,19.60
2023-05-15T09:53:03.409Z,19.50
2023-05-15T09:54:02.936Z,19.60
2023-05-15T09:55:03.024Z,19.50
2023-05-15T09:56:02.962Z,19.50
2023-05-15T09:57:03.124Z,19.50
2023-05-15T09:58:03.069Z,19.40
2023-05-15T09:59:02.741Z,19.40
2023-05-15T10:00:03.398Z,19.30
2023-05-15T10:01:03.098Z,19.30
2023-05-15T10:02:03.292Z,19.20
2023-05-15T10:03:03.391Z,19.20
2023-05-15T10:04:03.519Z,19.10
2023-05-15T10:05:03.492Z,19.10
2023-05-15T10:06:03.552Z,19.10
2023-05-15T10:07:05.072Z,19.10
2023-05-15T10:08:05.063Z,19.10
2023-05-15T10:09:03.343Z,19.10
2023-05-15T10:10:02.816Z,19.00
2023-05-15T10:11:02.762Z,19.00
2023-05-15T10:12:03.188Z,19.00
2023-05-15T10:13:03.301Z,19.00
2023-05-15T10:14:03.436Z,19.00
2023-05-15T10:15:03.429Z,19.00
2023-05-15T10:16:03.587Z,19.00
2023-05-15T10:17:03.542Z,19.00
2023-05-15T10:18:03.213Z,19.00
2023-05-15T10:19:05.011Z,19.00
2023-05-15T10:20:03.488Z,19.00
2023-05-15T10:21:03.186Z,19.10
2023-05-15T10:22:03.254Z,19.10
2023-05-15T10:23:03.164Z,19.10
2023-05-15T10:24:03.362Z,19.10
2023-05-15T10:25:03.414Z,19.10
2023-05-15T10:26:03.177Z,19.10
2023-05-15T10:27:03.353Z,19.10
2023-05-15T10:28:02.797Z,19.10
2023-05-15T10:29:02.804Z,19.20
2023-05-15T10:30:02.802Z,19.20
2023-05-15T10:31:02.840Z,19.30
2023-05-15T10:32:03.024Z,19.30
2023-05-15T10:33:03.574Z,19.40
2023-05-15T10:34:03.540Z,19.50
2023-05-15T10:35:02.770Z,19.50
2023-05-15T10:36:03.092Z,19.60
2023-05-15T10:37:03.540Z,19.60
2023-05-15T10:38:03.312Z,19.60
2023-05-15T10:39:03.412Z,19.70
2023-05-15T10:40:03.387Z,19.70
2023-05-15T10:41:16.381Z,19.80
2023-05-15T10:42:02.788Z,19.90
2023-05-15T10:43:02.791Z,20.00
2023-05-15T10:44:02.845Z,20.10
2023-05-15T10:45:02.752Z,20.20
2023-05-15T10:46:02.845Z,20.30
2023-05-15T10:47:02.871Z,20.30
2023-05-15T10:48:03.009Z,20.40
2023-05-15T10:49:03.078Z,20.50
2023-05-15T10:50:03.211Z,20.50
2023-05-15T10:51:03.138Z,20.60
2023-05-15T10:52:03.239Z,20.60
2023-05-15T10:53:03.121Z,20.60
2023-05-15T10:54:03.036Z,20.60
2023-05-15T10:55:03.581Z,20.60
2023-05-15T10:56:03.453Z,20.60
2023-05-15T10:57:03.592Z,20.50
2023-05-15T10:58:03.405Z,20.50
2023-05-15T10:59:03.403Z,20.40
2023-05-15T11:00:03.572Z,20.40
2023-05-15T11:01:03.011Z,20.30
2023-05-15T11:02:03.069Z,20.30
2023-05-15T11:03:02.879Z,20.30
2023-05-15T11:04:02.796Z,20.30
2023-05-15T11:05:03.142Z,20.20
2023-05-15T11:06:03.132Z,20.20
2023-05-15T11:07:03.147Z,20.10
2023-05-15T11:08:03.352Z,20.10
2023-05-15T11:09:03.434Z,20.00
2023-05-15T11:10:04.254Z,19.90
2023-05-15T11:11:03.370Z,19.90
2023-05-15T11:12:03.495Z,19.80
2023-05-15T11:13:03.135Z,19.80
2023-05-15T11:14:02.961Z,19.70
2023-05-15T11:15:03.012Z,19.70
2023-05-15T11:16:03.121Z,19.70
2023-05-15T11:17:03.156Z,19.80
2023-05-15T11:18:03.490Z,19.80
2023-05-15T11:19:03.684Z,19.80
2023-05-15T11:20:02.689Z,19.80
2023-05-15T11:21:03.210Z,19.80
2023-05-15T11:22:03.126Z,19.90
2023-05-15T11:23:03.225Z,19.90
2023-05-15T11:24:03.200Z,20.00
2023-05-15T11:25:03.187Z,20.10
2023-05-15T11:26:03.169Z,20.20
2023-05-15T11:27:03.164Z,20.30
2023-05-15T11:28:03.308Z,20.30
2023-05-15T11:29:03.507Z,20.40
2023-05-15T11:30:03.419Z,20.40
2023-05-15T11:31:03.536Z,20.50
2023-05-15T11:32:03.595Z,20.50
2023-05-15T11:33:03.521Z,20.60
2023-05-15T11:34:03.602Z,20.60
2023-05-15T11:35:03.453Z,20.60
2023-05-15T11:36:03.456Z,20.70
2023-05-15T11:37:03.628Z,20.70
2023-05-15T11:38:03.479Z,20.70
2023-05-15T11:39:03.157Z,20.70
2023-05-15T11:40:03.167Z,20.70
2023-05-15T11:41:03.289Z,20.70
2023-05-15T11:42:03.326Z,20.80
2023-05-15T11:43:02.758Z,20.80
2023-05-15T11:44:02.904Z,20.80
2023-05-15T11:45:03.337Z,20.80
2023-05-15T11:46:03.275Z,20.90
2023-05-15T11:47:03.249Z,20.90
2023-05-15T11:48:03.384Z,20.90
2023-05-15T11:49:02.692Z,20.90
2023-05-15T11:50:03.563Z,20.80
2023-05-15T11:51:03.573Z,20.80
2023-05-15T11:52:03.036Z,20.80
2023-05-15T11:53:03.097Z,20.80
2023-05-15T11:54:03.520Z,20.80
2023-05-15T11:55:03.079Z,20.80
2023-05-15T11:56:03.042Z,20.80
2023-05-15T11:57:03.342Z,20.80
2023-05-15T11:58:05.215Z,20.80
2023-05-15T11:59:03.367Z,20.80
2023-05-15T12:00:03.447Z,20.80
2023-05-15T12:01:03.494Z,20.80
2023-05-15T12:02:03.458Z,20.70
2023-05-15T12:03:03.580Z,20.70
2023-05-15T12:04:02.922Z,20.60
2023-05-15T12:05:02.915Z,20.60
2023-05-15T12:06:02.906Z,20.50
2023-05-15T12:07:03.408Z,20.50
2023-05-15T12:08:03.099Z,20.40
2023-05-15T12:09:03.259Z,20.30
2023-05-15T12:10:03.139Z,20.20
2023-05-15T12:11:03.276Z,20.10
2023-05-15T12:12:03.318Z,20.00
2023-05-15T12:13:03.336Z,19.90
2023-05-15T12:14:03.500Z,19.90
2023-05-15T12:15:03.054Z,19.80
2023-05-15T12:16:03.745Z,19.70
2023-05-15T12:17:03.610Z,19.60
2023-05-15T12:18:03.569Z,19.50
2023-05-15T12:19:03.576Z,19.40
2023-05-15T12:20:03.152Z,19.30
2023-05-15T12:21:02.922Z,19.20
2023-05-15T12:22:02.628Z,19.20
2023-05-15T12:23:02.799Z,19.20
2023-05-15T12:24:07.934Z,19.10
2023-05-15T12:25:03.357Z,19.10
2023-05-15T12:26:03.512Z,19.00
2023-05-15T12:27:03.567Z,19.00
2023-05-15T12:28:02.906Z,19.00
2023-05-15T12:29:02.949Z,19.00
2023-05-15T12:30:03.135Z,18.90
2023-05-15T12:31:03.088Z,18.90
2023-05-15T12:32:02.681Z,18.90
2023-05-15T12:33:03.292Z,18.90
2023-05-15T12:34:02.725Z,18.90
2023-05-15T12:35:03.252Z,18.90
2023-05-15T12:36:03.297Z,18.80
2023-05-15T12:37:03.434Z,18.80
2023-05-15T12:38:02.999Z,18.80
2023-05-15T12:39:02.993Z,18.80
2023-05-15T12:40:03.007Z,18.80
2023-05-15T12:41:05.240Z,18.80
2023-05-15T12:42:03.520Z,18.80
2023-05-15T12:43:03.541Z,18.80
2023-05-15T12:44:03.141Z,18.80
2023-05-15T12:45:03.111Z,18.80
2023-05-15T12:46:03.213Z,18.80
2023-05-15T12:47:03.515Z,18.80
2023-05-15T12:48:03.511Z,18.80
2023-05-15T12:49:03.046Z,18.90
2023-05-15T12:50:03.063Z,18.90
2023-05-15T12:51:03.110Z,18.90
2023-05-15T12:52:03.105Z,18.90
2023-05-15T12:53:03.077Z,19.00
2023-05-15T12:54:02.925Z,19.00
2023-05-15T12:55:03.073Z,19.10